Time;durP1;ratioP1;P1;durP2;ratioP2;P2;SDS_P1;SDS_P2;PMS_P1;PMS_P2;Temp;Humidity;BMP_temperature;BMP_pressure;BME280_temperature;BME280_humidity;BME280_pressure;Samples;Min_cycle;Max_cycle;Signal;HPM_P1;HPM_P2
2022/01/30 00:01:11;;;;;;;3.13;2.20;;;;;;;2.49;94.83;97537.25;5077288;28;20214;-84
2022/01/30 00:03:38;;;;;;;3.00;2.20;;;;;;;2.45;94.41;97522.56;5083934;28;20423;-84
2022/01/30 00:06:05;;;;;;;3.20;1.90;;;;;;;2.44;94.81;97523.56;5077685;28;20247;-83
2022/01/30 00:08:34;;;;;;;3.93;2.50;;;;;;;2.38;93.75;97516.16;5074250;28;20289;-83
2022/01/30 00:11:09;;;;;;;3.83;2.30;;;;;;;2.38;94.58;97513.50;5084213;28;20205;-84
2022/01/30 00:13:37;;;;;;;4.03;2.33;;;;;;;2.32;95.36;97503.41;5077709;28;20212;-85
2022/01/30 00:16:07;;;;;;;4.27;2.50;;;;;;;2.27;93.67;97491.41;5081364;28;20231;-83
2022/01/30 00:18:47;;;;;;;4.73;2.73;;;;;;;2.26;93.73;97495.06;5082357;28;20232;-85
2022/01/30 00:21:29;;;;;;;3.30;2.50;;;;;;;2.28;96.64;97503.75;5080610;28;20196;-86
2022/01/30 00:24:02;;;;;;;4.33;3.00;;;;;;;2.32;96.57;97501.59;5081837;28;20193;-85
2022/01/30 00:26:32;;;;;;;6.50;2.70;;;;;;;2.29;95.41;97493.91;5067292;28;20210;-83
2022/01/30 00:28:59;;;;;;;4.07;2.70;;;;;;;2.26;96.53;97503.03;5076478;28;20208;-84
2022/01/30 00:31:27;;;;;;;5.00;2.80;;;;;;;2.26;97.12;97497.72;5079499;28;20216;-83
2022/01/30 00:33:55;;;;;;;4.23;2.83;;;;;;;2.25;97.09;97495.19;5085182;28;20337;-86
2022/01/30 00:36:23;;;;;;;5.47;3.13;;;;;;;2.24;97.10;97505.00;5081863;28;20204;-84
2022/01/30 00:38:50;;;;;;;6.33;3.47;;;;;;;2.24;97.59;97491.69;5087462;28;20235;-84
2022/01/30 00:41:20;;;;;;;4.97;3.03;;;;;;;2.29;97.24;97504.59;5076983;28;20197;-84
2022/01/30 00:43:48;;;;;;;4.70;2.67;;;;;;;2.26;97.56;97502.22;5074192;28;20216;-84
2022/01/30 00:46:15;;;;;;;4.53;2.80;;;;;;;2.22;98.44;97504.31;5080142;28;20200;-84
2022/01/30 00:48:42;;;;;;;5.67;2.70;;;;;;;2.23;98.67;97511.31;5078322;28;20474;-84
2022/01/30 00:51:09;;;;;;;3.27;2.43;;;;;;;2.22;98.54;97500.81;5082581;28;20251;-84
2022/01/30 00:53:37;;;;;;;4.17;2.23;;;;;;;2.17;98.72;97495.94;5080666;28;20208;-84
2022/01/30 00:56:04;;;;;;;3.57;2.30;;;;;;;2.21;98.13;97485.84;5081706;28;20201;-85
2022/01/30 00:58:33;;;;;;;3.80;2.17;;;;;;;2.16;98.13;97498.75;5080288;28;20216;-83
2022/01/30 01:01:00;;;;;;;3.43;2.23;;;;;;;2.10;98.81;97496.69;5074949;28;20277;-84
2022/01/30 01:03:27;;;;;;;4.97;2.67;;;;;;;2.13;99.18;97504.38;5081432;28;20211;-86
2022/01/30 01:05:54;;;;;;;3.53;2.43;;;;;;;2.10;99.40;97513.53;5078127;28;20319;-86
2022/01/30 01:08:30;;;;;;;5.40;2.40;;;;;;;2.07;99.74;97497.81;5090008;28;20215;-85
2022/01/30 01:11:02;;;;;;;3.93;2.40;;;;;;;2.04;100.00;97522.09;5071943;28;20204;-85
2022/01/30 01:13:55;;;;;;;3.80;2.37;;;;;;;1.96;100.00;97514.00;5078406;28;20209;-84
2022/01/30 01:24:50;;;;;;;3.73;2.43;;;;;;;1.72;100.00;97514.53;5075519;28;20236;-84
2022/01/30 01:27:17;;;;;;;4.33;2.80;;;;;;;1.69;100.00;97511.34;5075028;28;20224;-85
2022/01/30 01:29:44;;;;;;;3.20;2.30;;;;;;;1.65;100.00;97520.59;5077588;28;20208;-85
2022/01/30 01:32:12;;;;;;;5.93;2.80;;;;;;;1.65;100.00;97515.28;5078072;28;20224;-83
2022/01/30 01:34:41;;;;;;;4.90;2.43;;;;;;;1.61;100.00;97501.44;5079374;28;20200;-84
2022/01/30 01:37:11;;;;;;;2.67;2.17;;;;;;;1.61;100.00;97519.25;5077892;28;20208;-85
2022/01/30 01:39:39;;;;;;;2.50;2.00;;;;;;;1.59;100.00;97531.84;5086086;28;20315;-84
2022/01/30 01:42:06;;;;;;;3.67;2.20;;;;;;;1.59;100.00;97537.19;5081714;28;20231;-86
2022/01/30 01:44:40;;;;;;;4.00;2.40;;;;;;;1.56;100.00;97532.97;5079429;28;20203;-83
2022/01/30 01:47:09;;;;;;;1.90;1.60;;;;;;;1.56;100.00;97540.97;5078506;28;20240;-84
2022/01/30 01:49:39;;;;;;;2.23;1.70;;;;;;;1.57;100.00;97544.47;5085652;28;20204;-84
2022/01/30 01:52:19;;;;;;;5.07;2.00;;;;;;;1.57;100.00;97541.78;5065138;28;20212;-86
2022/01/30 01:54:49;;;;;;;3.13;1.90;;;;;;;1.67;100.00;97540.78;5074342;28;20228;-85
2022/01/30 01:57:16;;;;;;;3.10;1.73;;;;;;;1.62;100.00;97534.19;5067562;28;20216;-85
2022/01/30 02:00:09;;;;;;;2.53;2.10;;;;;;;1.46;100.00;97516.19;5073711;28;20224;-84
2022/01/30 02:02:42;;;;;;;4.07;2.43;;;;;;;1.46;100.00;97517.03;5087030;28;20218;-85
2022/01/30 02:05:11;;;;;;;3.03;1.80;;;;;;;1.42;100.00;97496.19;5071363;28;20239;-87
2022/01/30 02:10:31;;;;;;;2.17;1.70;;;;;;;1.39;100.00;97515.94;5081741;28;20194;-84
2022/01/30 02:13:12;;;;;;;3.30;2.07;;;;;;;1.33;100.00;97511.19;5080572;28;20418;-85
2022/01/30 02:24:07;;;;;;;2.80;1.90;;;;;;;1.26;100.00;97512.75;5084836;28;20204;-85
2022/01/30 02:26:37;;;;;;;2.93;1.80;;;;;;;1.20;100.00;97515.97;5082579;28;20218;-83
2022/01/30 02:29:04;;;;;;;3.13;1.70;;;;;;;1.20;100.00;97509.81;5084525;28;20227;-84
2022/01/30 02:31:35;;;;;;;2.30;1.83;;;;;;;1.14;100.00;97496.13;5084033;28;20208;-84
2022/01/30 02:34:03;;;;;;;2.13;1.80;;;;;;;1.12;100.00;97505.22;5087988;28;20273;-87
2022/01/30 02:36:30;;;;;;;1.73;1.60;;;;;;;1.06;100.00;97492.50;5075749;28;20234;-84
2022/01/30 02:38:59;;;;;;;3.10;1.60;;;;;;;1.05;100.00;97486.34;5083231;28;20212;-84
2022/01/30 02:41:27;;;;;;;4.10;1.97;;;;;;;1.09;100.00;97487.75;5080091;28;20359;-85
2022/01/30 02:44:08;;;;;;;2.23;1.77;;;;;;;1.10;100.00;97480.59;5097463;27;20209;-85
2022/01/30 02:46:40;;;;;;;2.97;1.63;;;;;;;1.08;100.00;97458.63;5087417;28;20215;-86
2022/01/30 02:49:28;;;;;;;3.33;1.90;;;;;;;1.14;100.00;97453.56;5077354;28;20236;-85
2022/01/30 02:51:58;;;;;;;2.60;1.70;;;;;;;1.20;100.00;97452.13;5083520;28;20201;-84
2022/01/30 02:54:26;;;;;;;3.13;1.70;;;;;;;1.21;100.00;97437.84;5081475;28;20301;-86
2022/01/30 02:56:55;;;;;;;3.87;1.70;;;;;;;1.27;100.00;97439.09;5082768;28;20205;-84
2022/01/30 02:59:23;;;;;;;2.27;1.60;;;;;;;1.36;100.00;97438.22;5076669;28;20204;-84
2022/01/30 03:01:50;;;;;;;1.73;1.43;;;;;;;1.32;100.00;97427.03;5081114;28;20224;-86
2022/01/30 03:04:18;;;;;;;2.33;1.67;;;;;;;1.26;100.00;97435.59;5092052;28;20314;-83
2022/01/30 03:06:46;;;;;;;2.30;1.70;;;;;;;1.33;100.00;97450.00;5079804;28;20241;-84
2022/01/30 03:09:30;;;;;;;2.63;1.60;;;;;;;1.22;100.00;97444.84;5083469;28;20564;-84
2022/01/30 03:11:58;;;;;;;2.50;1.60;;;;;;;1.24;100.00;97458.84;5091792;28;20212;-85
2022/01/30 03:14:26;;;;;;;2.73;1.87;;;;;;;1.20;100.00;97446.81;5081897;28;20260;-85
2022/01/30 03:16:53;;;;;;;2.30;1.70;;;;;;;1.22;100.00;97451.97;5084056;28;20201;-84
2022/01/30 03:19:20;;;;;;;2.50;1.67;;;;;;;1.15;100.00;97454.41;5081598;28;20212;-86
2022/01/30 03:21:48;;;;;;;2.27;1.63;;;;;;;1.14;100.00;97458.03;5076534;28;20225;-85
2022/01/30 03:24:15;;;;;;;2.47;1.80;;;;;;;1.14;100.00;97453.56;5081325;28;20235;-84
2022/01/30 03:26:43;;;;;;;2.50;1.67;;;;;;;1.10;100.00;97430.06;5081415;28;20280;-84
2022/01/30 03:29:16;;;;;;;2.90;1.60;;;;;;;1.08;100.00;97426.69;5073910;28;20208;-85
2022/01/30 03:31:45;;;;;;;4.20;1.70;;;;;;;1.13;100.00;97429.75;5077548;28;20213;-84
2022/01/30 03:34:13;;;;;;;2.73;1.70;;;;;;;1.14;100.00;97434.09;5084029;28;20263;-84
2022/01/30 03:36:50;;;;;;;1.90;1.70;;;;;;;1.13;100.00;97430.59;5089700;28;20207;-87
2022/01/30 03:39:18;;;;;;;2.57;1.63;;;;;;;1.08;100.00;97427.53;5082246;28;20258;-83
2022/01/30 03:41:46;;;;;;;2.33;1.60;;;;;;;1.13;100.00;97427.94;5094685;28;20315;-83
2022/01/30 03:44:17;;;;;;;3.33;1.60;;;;;;;0.99;100.00;97411.59;5082114;28;20208;-83
2022/01/30 03:46:45;;;;;;;2.60;1.60;;;;;;;0.95;100.00;97410.22;5075147;28;20233;-85
2022/01/30 03:49:12;;;;;;;2.43;1.90;;;;;;;0.99;100.00;97427.56;5076578;28;20204;-83
2022/01/30 03:51:48;;;;;;;2.50;1.77;;;;;;;1.03;100.00;97428.94;5074958;28;20234;-83
2022/01/30 03:54:32;;;;;;;2.47;1.57;;;;;;;1.02;100.00;97428.09;5081838;28;20216;-83
2022/01/30 03:57:00;;;;;;;2.27;1.70;;;;;;;0.98;100.00;97437.38;5080355;28;20291;-84
2022/01/30 03:59:30;;;;;;;2.87;2.07;;;;;;;0.93;100.00;97438.78;5083821;28;20328;-84
2022/01/30 04:01:58;;;;;;;2.53;1.80;;;;;;;0.96;100.00;97449.13;5082514;28;20308;-86
2022/01/30 04:04:27;;;;;;;2.43;1.70;;;;;;;0.90;100.00;97441.72;5079613;28;20211;-84
2022/01/30 04:06:56;;;;;;;2.43;1.83;;;;;;;0.91;100.00;97446.06;5081544;28;20312;-84
2022/01/30 04:09:43;;;;;;;2.37;1.67;;;;;;;0.89;100.00;97448.03;5077964;28;20287;-85
2022/01/30 04:12:16;;;;;;;1.77;1.60;;;;;;;0.81;100.00;97450.56;5081513;28;20303;-84
2022/01/30 04:14:55;;;;;;;2.30;1.90;;;;;;;0.76;100.00;97448.34;5083843;28;20273;-84
2022/01/30 04:17:45;;;;;;;4.90;2.80;;;;;;;0.75;100.00;97444.00;5079150;28;20255;-83
2022/01/30 04:20:31;;;;;;;2.87;2.03;;;;;;;0.77;100.00;97461.47;5081030;28;20225;-84
2022/01/30 04:23:13;;;;;;;2.20;1.70;;;;;;;0.77;100.00;97459.81;5082636;28;20211;-84
2022/01/30 04:26:00;;;;;;;1.77;1.57;;;;;;;0.69;100.00;97457.84;5081526;28;20200;-83
2022/01/30 04:28:47;;;;;;;3.50;1.90;;;;;;;0.64;100.00;97449.47;5083634;28;20273;-84
2022/01/30 04:31:35;;;;;;;4.23;1.97;;;;;;;0.67;100.00;97455.34;5079497;28;20224;-83
2022/01/30 04:34:29;;;;;;;3.33;1.70;;;;;;;0.63;100.00;97453.94;5067915;28;20247;-84
2022/01/30 04:37:23;;;;;;;2.73;1.87;;;;;;;0.65;100.00;97467.94;5075342;28;20199;-84
2022/01/30 04:40:40;;;;;;;3.57;2.30;;;;;;;0.60;100.00;97472.81;5077803;28;20315;-83
2022/01/30 04:52:47;;;;;;;2.40;1.70;;;;;;;0.59;100.00;97478.31;5073985;28;20219;-84
2022/01/30 04:58:27;;;;;;;2.77;1.90;;;;;;;0.57;100.00;97470.47;5053833;28;20201;-84
2022/01/30 05:01:20;;;;;;;2.20;1.60;;;;;;;0.62;100.00;97470.88;5074679;28;20230;-86
2022/01/30 05:04:23;;;;;;;3.50;1.83;;;;;;;0.63;100.00;97461.91;5064724;28;20219;-84
2022/01/30 05:07:29;;;;;;;1.97;1.77;;;;;;;0.73;100.00;97459.25;5074503;28;20258;-85
2022/01/30 05:10:29;;;;;;;8.40;4.87;;;;;;;0.67;100.00;97457.16;5078944;28;20218;-83
2022/01/30 05:13:18;;;;;;;2.90;2.00;;;;;;;0.57;100.00;97446.53;5075746;28;20197;-84
2022/01/30 05:16:05;;;;;;;6.90;3.83;;;;;;;0.60;100.00;97467.50;5083784;28;20215;-84
2022/01/30 05:18:58;;;;;;;9.03;5.00;;;;;;;0.62;100.00;97462.03;5079097;28;20212;-83
2022/01/30 05:21:36;;;;;;;8.20;4.60;;;;;;;0.57;100.00;97454.50;5082892;28;20237;-83
2022/01/30 05:24:28;;;;;;;4.30;2.40;;;;;;;0.60;100.00;97456.03;5063476;28;20218;-85
2022/01/30 05:27:09;;;;;;;4.87;3.13;;;;;;;0.55;100.00;97461.78;5079082;28;20209;-86
2022/01/30 05:30:04;;;;;;;6.57;4.20;;;;;;;0.57;100.00;97462.50;5077943;28;20272;-83
2022/01/30 05:32:41;;;;;;;5.67;4.73;;;;;;;0.49;100.00;97450.88;5082816;28;20299;-84
2022/01/30 05:35:20;;;;;;;5.30;4.43;;;;;;;0.54;100.00;97467.22;5077951;28;20240;-84
2022/01/30 05:38:11;;;;;;;3.83;3.37;;;;;;;0.54;100.00;97470.72;5060938;28;20209;-84
2022/01/30 05:40:58;;;;;;;6.23;3.23;;;;;;;0.57;100.00;97465.16;5086019;28;20223;-84
2022/01/30 05:43:48;;;;;;;3.67;3.10;;;;;;;0.59;100.00;97463.19;5084604;28;20238;-84
2022/01/30 05:46:44;;;;;;;4.07;2.93;;;;;;;0.66;100.00;97463.47;5071353;28;20632;-85
2022/01/30 05:49:32;;;;;;;2.70;2.27;;;;;;;0.62;100.00;97460.22;5074439;28;20213;-83
2022/01/30 05:52:17;;;;;;;3.13;2.00;;;;;;;0.57;100.00;97472.28;5085279;28;20237;-83
2022/01/30 05:55:00;;;;;;;4.13;2.43;;;;;;;0.57;100.00;97477.59;5097314;28;20215;-84
2022/01/30 05:57:29;;;;;;;3.77;2.33;;;;;;;0.58;100.00;97472.16;5082371;28;20219;-84
2022/01/30 05:59:59;;;;;;;3.43;2.23;;;;;;;0.63;100.00;97479.69;5081382;28;20228;-83
2022/01/30 06:02:46;;;;;;;5.63;2.20;;;;;;;0.67;100.00;97486.41;5079220;28;20329;-85
2022/01/30 06:05:15;;;;;;;3.33;2.37;;;;;;;0.59;100.00;97473.81;5083472;28;20250;-83
2022/01/30 06:07:49;;;;;;;4.70;2.03;;;;;;;0.59;100.00;97487.13;5080711;28;20256;-83
2022/01/30 06:10:17;;;;;;;2.60;1.97;;;;;;;0.70;100.00;97499.41;5083614;28;20210;-83
2022/01/30 06:12:46;;;;;;;2.43;1.83;;;;;;;0.70;100.00;97491.41;5078407;28;20546;-84
2022/01/30 06:15:14;;;;;;;3.23;2.53;;;;;;;0.77;100.00;97503.16;5083779;28;20205;-84
2022/01/30 06:17:42;;;;;;;4.97;2.00;;;;;;;0.80;100.00;97499.38;5087790;28;20283;-84
2022/01/30 06:20:42;;;;;;;3.10;2.50;;;;;;;0.88;100.00;97504.84;5081626;28;20208;-84
2022/01/30 06:23:36;;;;;;;2.60;2.17;;;;;;;0.85;100.00;97505.16;5066168;28;20213;-84
2022/01/30 06:26:23;;;;;;;3.30;2.20;;;;;;;0.92;100.00;97516.88;5079463;28;20223;-83
2022/01/30 06:29:10;;;;;;;4.53;2.47;;;;;;;0.94;100.00;97514.91;5079693;28;20208;-84
2022/01/30 06:31:56;;;;;;;3.53;2.60;;;;;;;0.97;100.00;97520.78;5083017;28;20297;-84
2022/01/30 06:34:42;;;;;;;3.73;2.40;;;;;;;0.94;100.00;97523.72;5084776;28;20392;-85
2022/01/30 06:37:21;;;;;;;3.43;2.43;;;;;;;0.95;100.00;97524.56;5085890;28;20207;-84
2022/01/30 06:39:55;;;;;;;4.33;2.80;;;;;;;0.92;100.00;97516.88;5080136;28;20204;-84
2022/01/30 06:42:42;;;;;;;4.43;2.90;;;;;;;1.00;100.00;97525.00;5086598;28;20228;-83
2022/01/30 06:45:29;;;;;;;3.67;2.90;;;;;;;1.04;100.00;97529.03;5075283;28;20210;-84
2022/01/30 06:48:18;;;;;;;5.83;2.97;;;;;;;1.06;100.00;97521.75;5077910;28;20204;-84
2022/01/30 06:51:08;;;;;;;5.30;2.70;;;;;;;1.10;100.00;97529.31;5073193;28;20205;-83
2022/01/30 06:54:10;;;;;;;4.83;3.37;;;;;;;1.07;100.00;97515.47;5045903;28;20214;-86
2022/01/30 06:56:56;;;;;;;4.27;3.30;;;;;;;1.14;100.00;97524.53;5074631;28;20217;-83
2022/01/30 06:59:41;;;;;;;5.23;3.33;;;;;;;1.14;100.00;97528.03;5083070;28;20261;-84
2022/01/30 07:02:29;;;;;;;4.40;3.20;;;;;;;1.16;100.00;97535.88;5083141;28;20226;-83
2022/01/30 07:05:14;;;;;;;5.00;2.90;;;;;;;1.15;100.00;97528.88;5083024;28;20239;-85
2022/01/30 07:07:52;;;;;;;5.30;3.03;;;;;;;1.20;100.00;97534.59;5081197;28;20211;-83
2022/01/30 07:10:20;;;;;;;3.67;2.80;;;;;;;1.24;100.00;97541.31;5079799;28;20219;-83
2022/01/30 07:12:47;;;;;;;3.70;2.80;;;;;;;1.31;100.00;97539.78;5079555;28;20207;-85
2022/01/30 07:15:14;;;;;;;8.03;4.80;;;;;;;1.34;100.00;97549.28;5091568;28;20232;-83
2022/01/30 07:17:43;;;;;;;5.27;3.70;;;;;;;1.36;100.00;97545.47;5083515;28;20212;-83
2022/01/30 07:20:12;;;;;;;4.57;3.00;;;;;;;1.34;100.00;97542.16;5074906;28;20204;-83
2022/01/30 07:22:39;;;;;;;5.83;3.43;;;;;;;1.35;100.00;97541.19;5081109;28;20223;-85
2022/01/30 07:25:07;;;;;;;6.30;3.30;;;;;;;1.45;100.00;97557.09;5083770;28;20203;-84
2022/01/30 07:27:35;;;;;;;5.73;3.97;;;;;;;1.47;100.00;97558.63;5082802;28;20205;-85
2022/01/30 07:30:02;;;;;;;15.77;9.30;;;;;;;1.46;100.00;97559.59;5075292;28;20258;-86
2022/01/30 07:32:30;;;;;;;12.87;8.10;;;;;;;1.41;100.00;97551.22;5078361;28;20265;-83
2022/01/30 07:34:58;;;;;;;12.00;7.20;;;;;;;1.39;100.00;97547.03;5080018;28;20258;-85
2022/01/30 07:37:25;;;;;;;8.03;5.53;;;;;;;1.35;100.00;97545.66;5081905;28;20213;-84
2022/01/30 07:39:53;;;;;;;10.13;6.57;;;;;;;1.42;100.00;97558.25;5081842;28;20269;-83
2022/01/30 07:42:21;;;;;;;7.97;5.47;;;;;;;1.44;100.00;97548.28;5077445;28;20220;-85
2022/01/30 07:44:52;;;;;;;8.43;5.97;;;;;;;1.44;100.00;97550.97;5082175;28;20251;-84
2022/01/30 07:47:19;;;;;;;10.33;7.07;;;;;;;1.47;100.00;97544.47;5074544;28;20304;-84
2022/01/30 07:49:51;;;;;;;9.37;6.67;;;;;;;1.52;100.00;97553.72;5083272;28;20296;-83
2022/01/30 07:52:20;;;;;;;10.57;7.63;;;;;;;1.55;100.00;97543.75;5076636;28;20206;-84
2022/01/30 07:54:47;;;;;;;11.53;9.03;;;;;;;1.61;100.00;97548.53;5081040;28;20300;-84
2022/01/30 07:57:15;;;;;;;13.47;9.53;;;;;;;1.69;100.00;97537.97;5084167;28;20213;-84
2022/01/30 07:59:42;;;;;;;13.83;9.97;;;;;;;1.68;100.00;97536.31;5077830;28;20208;-86
2022/01/30 08:02:10;;;;;;;11.83;7.50;;;;;;;1.74;100.00;97546.34;5081347;28;20226;-83
2022/01/30 08:04:37;;;;;;;6.90;5.43;;;;;;;1.70;100.00;97534.34;5077939;28;20220;-84
2022/01/30 08:07:04;;;;;;;11.23;7.60;;;;;;;1.76;100.00;97539.91;5081791;28;20237;-86
2022/01/30 08:09:33;;;;;;;11.67;7.40;;;;;;;1.85;100.00;97538.19;5081151;28;20262;-85
2022/01/30 08:12:00;;;;;;;11.87;6.67;;;;;;;1.84;100.00;97540.03;5081775;28;20297;-85
2022/01/30 08:14:27;;;;;;;8.47;6.20;;;;;;;2.05;100.00;97544.25;5083716;28;20193;-84
2022/01/30 08:16:54;;;;;;;11.87;7.57;;;;;;;2.05;100.00;97531.75;5078337;28;20209;-83
2022/01/30 08:19:24;;;;;;;9.23;5.73;;;;;;;2.03;100.00;97539.09;5078301;28;20204;-84
2022/01/30 08:21:51;;;;;;;15.23;7.60;;;;;;;2.09;100.00;97535.00;5085176;28;20216;-84
2022/01/30 08:24:19;;;;;;;8.17;6.23;;;;;;;2.02;100.00;97528.59;5077701;28;20533;-86
2022/01/30 08:26:48;;;;;;;7.93;6.00;;;;;;;2.03;100.00;97532.91;5083272;28;20209;-85
2022/01/30 08:29:15;;;;;;;9.73;7.07;;;;;;;2.07;100.00;97527.13;5073439;28;20205;-84
2022/01/30 08:31:42;;;;;;;9.90;7.20;;;;;;;2.17;100.00;97532.41;5078374;28;20201;-84
2022/01/30 08:34:09;;;;;;;8.77;6.03;;;;;;;2.22;100.00;97538.13;5077473;28;20201;-84
2022/01/30 08:36:36;;;;;;;9.47;6.60;;;;;;;2.24;100.00;97529.00;5078506;28;20488;-84
2022/01/30 08:39:05;;;;;;;20.60;13.67;;;;;;;2.20;100.00;97529.47;5077535;28;20205;-84
2022/01/30 08:41:32;;;;;;;17.60;10.93;;;;;;;2.26;100.00;97527.03;5094316;28;20229;-84
2022/01/30 08:44:01;;;;;;;17.53;11.13;;;;;;;2.36;100.00;97534.13;5078159;28;20215;-83
2022/01/30 08:46:28;;;;;;;14.93;10.27;;;;;;;2.38;100.00;97537.50;5087981;28;20224;-84
2022/01/30 08:48:55;;;;;;;15.33;9.20;;;;;;;2.50;100.00;97541.59;5080279;28;20239;-85
2022/01/30 08:51:22;;;;;;;13.07;8.63;;;;;;;2.55;100.00;97532.16;5070544;28;20260;-85
2022/01/30 08:53:49;;;;;;;20.63;11.27;;;;;;;2.63;100.00;97534.09;5047078;28;20222;-86
2022/01/30 08:56:18;;;;;;;16.17;11.03;;;;;;;2.79;100.00;97542.25;5036646;28;20206;-84
2022/01/30 08:58:46;;;;;;;8.50;6.37;;;;;;;3.00;100.00;97533.91;5025559;28;20214;-84
2022/01/30 09:01:14;;;;;;;10.90;6.30;;;;;;;3.23;100.00;97548.41;5037299;28;20209;-84
2022/01/30 09:03:43;;;;;;;6.63;5.07;;;;;;;3.37;100.00;97553.22;5040690;28;20218;-84
2022/01/30 09:06:10;;;;;;;10.00;5.20;;;;;;;3.54;100.00;97558.66;5058542;28;20261;-84
2022/01/30 09:08:37;;;;;;;8.70;5.20;;;;;;;3.63;100.00;97550.56;5040151;28;20202;-85
2022/01/30 09:11:06;;;;;;;11.87;6.77;;;;;;;3.71;100.00;97555.94;5041330;28;20260;-85
2022/01/30 09:13:33;;;;;;;11.70;5.20;;;;;;;3.84;100.00;97557.34;5050669;28;20235;-85
2022/01/30 09:16:02;;;;;;;7.37;5.20;;;;;;;3.91;100.00;97550.38;5042776;28;20206;-86
2022/01/30 09:18:31;;;;;;;8.43;5.10;;;;;;;4.06;100.00;97556.78;5037303;28;20211;-84
2022/01/30 09:20:58;;;;;;;7.70;5.30;;;;;;;4.21;100.00;97549.84;5046833;28;20225;-85
2022/01/30 09:23:25;;;;;;;8.10;5.73;;;;;;;4.31;100.00;97550.53;5033655;28;20253;-85
2022/01/30 09:25:52;;;;;;;8.53;5.60;;;;;;;4.38;100.00;97545.38;5048800;28;20242;-84
2022/01/30 09:28:20;;;;;;;7.67;5.47;;;;;;;4.49;100.00;97548.59;5042401;28;20229;-85
2022/01/30 09:30:47;;;;;;;7.70;5.30;;;;;;;4.49;100.00;97537.91;5053035;28;20210;-87
2022/01/30 09:33:14;;;;;;;7.57;4.70;;;;;;;4.70;100.00;97545.47;5050424;28;20205;-85
2022/01/30 09:35:43;;;;;;;6.50;4.43;;;;;;;4.81;100.00;97538.97;5055339;28;20301;-84
2022/01/30 09:38:10;;;;;;;5.00;4.00;;;;;;;5.01;100.00;97537.66;5058071;28;20191;-84
2022/01/30 09:40:37;;;;;;;6.20;4.20;;;;;;;5.17;100.00;97534.97;5030944;28;20500;-85
2022/01/30 09:43:04;;;;;;;5.67;4.37;;;;;;;5.23;100.00;97533.47;5047551;28;20210;-84
2022/01/30 09:45:31;;;;;;;5.87;4.10;;;;;;;5.31;100.00;97530.78;5052201;28;20212;-84
2022/01/30 09:47:58;;;;;;;5.40;4.27;;;;;;;5.38;100.00;97530.94;5031624;28;20209;-85
2022/01/30 09:50:26;;;;;;;6.60;4.03;;;;;;;5.41;100.00;97517.22;5051955;28;20210;-84
2022/01/30 09:52:55;;;;;;;5.80;4.10;;;;;;;5.57;100.00;97525.22;5038136;28;20205;-84
2022/01/30 09:55:23;;;;;;;6.60;5.00;;;;;;;5.61;100.00;97508.63;5042982;28;20293;-85
2022/01/30 09:57:50;;;;;;;5.60;3.67;;;;;;;5.71;100.00;97514.63;5033373;28;20229;-85
2022/01/30 10:00:18;;;;;;;4.47;3.60;;;;;;;5.87;100.00;97515.63;5052899;28;20211;-84
2022/01/30 10:02:45;;;;;;;4.37;3.47;;;;;;;5.89;100.00;97506.41;5042589;28;20248;-85
2022/01/30 10:05:14;;;;;;;4.50;3.17;;;;;;;6.05;100.00;97522.44;5027710;28;20326;-84
2022/01/30 10:07:43;;;;;;;4.47;3.50;;;;;;;6.01;100.00;97515.75;5053819;28;20230;-84
2022/01/30 10:10:17;;;;;;;4.27;3.47;;;;;;;6.10;100.00;97513.03;5041649;28;20206;-84
2022/01/30 10:13:06;;;;;;;6.50;3.70;;;;;;;6.13;100.00;97518.88;5028790;28;20214;-86
2022/01/30 10:15:50;;;;;;;3.80;3.03;;;;;;;6.19;100.00;97514.69;5054080;28;20209;-85
2022/01/30 10:18:18;;;;;;;5.50;4.10;;;;;;;6.30;100.00;97498.19;5058803;28;20236;-85
2022/01/30 10:20:45;;;;;;;5.90;3.93;;;;;;;6.40;100.00;97499.63;5044280;28;20275;-86
2022/01/30 10:23:13;;;;;;;7.27;3.60;;;;;;;6.44;100.00;97494.78;5033116;28;20244;-85
2022/01/30 10:25:51;;;;;;;5.43;3.53;;;;;;;6.45;100.00;97489.25;5046124;28;20301;-85
2022/01/30 10:28:20;;;;;;;4.27;3.33;;;;;;;6.58;100.00;97480.59;5049891;28;20447;-85
2022/01/30 10:30:49;;;;;;;4.93;2.93;;;;;;;6.71;100.00;97471.97;5041722;28;20212;-86
2022/01/30 10:33:17;;;;;;;3.00;2.70;;;;;;;6.74;100.00;97474.28;5035467;28;20222;-85
2022/01/30 10:35:53;;;;;;;4.13;2.67;;;;;;;6.82;100.00;97472.34;5046506;28;20222;-85
2022/01/30 10:38:25;;;;;;;4.63;3.00;;;;;;;6.92;100.00;97473.97;5048048;28;20205;-85
2022/01/30 10:41:00;;;;;;;3.97;2.53;;;;;;;7.14;100.00;97471.28;5040009;28;20207;-84
2022/01/30 10:43:51;;;;;;;2.30;2.03;;;;;;;7.11;100.00;97468.09;5033180;28;20222;-85
2022/01/30 10:46:20;;;;;;;2.63;2.03;;;;;;;7.02;100.00;97463.81;5040522;28;20234;-86
2022/01/30 10:48:52;;;;;;;4.87;2.50;;;;;;;7.01;100.00;97475.56;5036757;28;20213;-85
2022/01/30 10:51:19;;;;;;;2.67;2.43;;;;;;;6.89;100.00;97461.72;5035609;28;20274;-85
2022/01/30 10:53:49;;;;;;;3.03;2.57;;;;;;;6.75;100.00;97463.34;5051550;28;20223;-86
2022/01/30 10:56:24;;;;;;;3.30;2.40;;;;;;;6.71;100.00;97459.38;5039008;28;20207;-85
2022/01/30 10:59:09;;;;;;;3.30;2.80;;;;;;;6.66;100.00;97461.75;5029570;28;20202;-85
2022/01/30 11:01:37;;;;;;;3.60;2.63;;;;;;;6.74;100.00;97447.44;5035423;28;20214;-85
2022/01/30 11:04:04;;;;;;;3.83;2.83;;;;;;;6.90;100.00;97451.81;5037350;28;20241;-85
2022/01/30 11:06:38;;;;;;;2.83;2.53;;;;;;;7.02;100.00;97461.13;5041534;28;20249;-84
2022/01/30 11:09:07;;;;;;;2.50;2.30;;;;;;;7.36;100.00;97442.69;5055828;28;20297;-85
2022/01/30 11:11:40;;;;;;;2.80;2.40;;;;;;;7.62;100.00;97442.25;5040818;28;20589;-84
2022/01/30 11:14:21;;;;;;;3.53;2.43;;;;;;;7.61;100.00;97435.19;5046404;28;20202;-85
2022/01/30 11:17:02;;;;;;;4.20;2.87;;;;;;;7.46;100.00;97429.81;5051273;28;20202;-85
2022/01/30 11:19:33;;;;;;;3.47;2.70;;;;;;;7.35;100.00;97424.06;5047856;28;20210;-85
2022/01/30 11:22:02;;;;;;;7.27;3.40;;;;;;;7.33;100.00;97426.09;5050394;28;20218;-85
2022/01/30 11:24:30;;;;;;;4.33;2.80;;;;;;;7.56;100.00;97416.94;5055524;28;20232;-85
2022/01/30 11:26:59;;;;;;;3.13;2.07;;;;;;;7.60;100.00;97410.16;5036439;28;20213;-85
2022/01/30 11:29:26;;;;;;;3.47;2.03;;;;;;;7.41;100.00;97404.50;5034704;28;20217;-86
2022/01/30 11:31:54;;;;;;;3.07;2.17;;;;;;;7.41;100.00;97402.66;5052679;28;20210;-85
2022/01/30 11:34:24;;;;;;;3.83;1.90;;;;;;;7.36;100.00;97404.22;5052773;28;20210;-84
2022/01/30 11:36:53;;;;;;;1.97;1.83;;;;;;;7.34;100.00;97395.50;5043718;28;20206;-84
2022/01/30 11:39:21;;;;;;;2.17;1.83;;;;;;;7.33;100.00;97393.84;5045554;28;20206;-85
2022/01/30 11:42:13;;;;;;;2.57;1.93;;;;;;;7.31;100.00;97383.31;5032695;28;20199;-84
2022/01/30 11:44:40;;;;;;;2.30;2.00;;;;;;;7.33;100.00;97378.56;5031457;28;20230;-84
2022/01/30 11:47:18;;;;;;;2.13;1.80;;;;;;;7.41;100.00;97375.78;5036251;28;20217;-85
2022/01/30 11:49:52;;;;;;;2.30;1.93;;;;;;;7.48;100.00;97368.66;5048912;28;20226;-85
2022/01/30 11:52:21;;;;;;;2.10;1.90;;;;;;;7.67;100.00;97371.78;5049115;28;20354;-86
2022/01/30 11:54:51;;;;;;;3.53;2.00;;;;;;;7.92;100.00;97362.38;5051821;28;20216;-86
2022/01/30 11:57:47;;;;;;;2.33;2.13;;;;;;;8.06;100.00;97358.84;5053153;28;20211;-86
2022/01/30 12:00:38;;;;;;;2.50;2.10;;;;;;;8.08;100.00;97355.97;5005474;28;20213;-85
2022/01/30 12:03:27;;;;;;;2.33;2.00;;;;;;;7.99;100.00;97349.88;5052964;28;20249;-85
2022/01/30 12:05:56;;;;;;;2.60;1.70;;;;;;;7.96;100.00;97350.22;5043186;28;20230;-86
2022/01/30 12:08:45;;;;;;;1.83;1.73;;;;;;;7.94;100.00;97344.19;5050015;28;20305;-85
2022/01/30 12:11:47;;;;;;;2.70;2.07;;;;;;;7.90;100.00;97342.94;5035956;28;20351;-85
2022/01/30 12:14:44;;;;;;;1.93;1.70;;;;;;;7.83;100.00;97336.63;5041304;28;20329;-86
2022/01/30 12:17:12;;;;;;;3.40;2.43;;;;;;;7.88;100.00;97336.91;5037894;28;20238;-86
2022/01/30 12:20:05;;;;;;;2.50;2.07;;;;;;;7.86;100.00;97323.63;5045620;28;20215;-85
2022/01/30 12:22:40;;;;;;;2.17;1.50;;;;;;;7.90;100.00;97318.72;5054204;28;20221;-84
2022/01/30 12:25:40;;;;;;;1.93;1.37;;;;;;;7.88;100.00;97315.38;5030459;28;20198;-85
2022/01/30 12:28:14;;;;;;;1.53;1.43;;;;;;;7.89;100.00;97314.38;4950938;28;20216;-85
2022/01/30 12:30:50;;;;;;;1.33;1.20;;;;;;;7.94;100.00;97303.88;4963799;28;20223;-84
2022/01/30 12:33:42;;;;;;;1.80;1.30;;;;;;;8.04;100.00;97307.06;5008511;28;20209;-87
2022/01/30 12:36:20;;;;;;;1.43;1.20;;;;;;;8.02;100.00;97303.75;5041225;28;20321;-85
2022/01/30 12:39:03;;;;;;;1.20;1.10;;;;;;;8.04;100.00;97296.31;5048732;28;20209;-85